Time;durP1;ratioP1;P1;durP2;ratioP2;P2;SDS_P1;SDS_P2;PMS_P1;PMS_P2;Temp;Humidity;BMP_temperature;BMP_pressure;BME280_temperature;BME280_humidity;BME280_pressure;Samples;Min_cycle;Max_cycle;Signal;HPM_P1;HPM_P2
2022/07/30 00:00:34;;;;;;;1.20;0.40;;;;;;;;;;5108574;28;20031;-67
2022/07/30 00:03:01;;;;;;;2.07;0.63;;;;;;;;;;5108314;28;20107;-67
2022/07/30 00:05:27;;;;;;;0.57;0.40;;;;;;;;;;5107499;28;20094;-67
2022/07/30 00:07:54;;;;;;;1.20;0.60;;;;;;;;;;5114923;27;20027;-67
2022/07/30 00:10:21;;;;;;;4.53;2.77;;;;;;;;;;5133345;27;20015;-67
2022/07/30 00:12:49;;;;;;;0.50;0.40;;;;;;;;;;5132082;27;20043;-67
2022/07/30 00:15:15;;;;;;;1.13;0.70;;;;;;;;;;5129546;27;20019;-67
2022/07/30 00:17:42;;;;;;;5.07;0.90;;;;;;;;;;5113288;28;20046;-67
2022/07/30 00:20:09;;;;;;;0.67;0.43;;;;;;;;;;5112889;28;20080;-67
2022/07/30 00:22:35;;;;;;;23.23;0.97;;;;;;;;;;5108521;28;20436;-67
2022/07/30 00:25:02;;;;;;;3.43;0.57;;;;;;;;;;5108136;28;20023;-67
2022/07/30 00:27:30;;;;;;;0.60;0.30;;;;;;;;;;5103943;28;20146;-67
2022/07/30 00:29:56;;;;;;;1.63;0.53;;;;;;;;;;5105381;27;20030;-67
2022/07/30 00:32:23;;;;;;;1.37;0.80;;;;;;;;;;5132454;27;20103;-67
2022/07/30 00:34:50;;;;;;;0.70;0.33;;;;;;;;;;5117385;27;20028;-67
2022/07/30 00:37:16;;;;;;;0.57;0.43;;;;;;;;;;5113024;28;20046;-67
2022/07/30 00:39:43;;;;;;;1.70;0.47;;;;;;;;;;5112839;28;20108;-67
2022/07/30 00:42:10;;;;;;;2.83;0.47;;;;;;;;;;5112959;28;20400;-66
2022/07/30 00:44:36;;;;;;;0.20;0.13;;;;;;;;;;5108788;28;20562;-67
2022/07/30 00:47:03;;;;;;;4.13;0.60;;;;;;;;;;5124124;28;20072;-67
2022/07/30 00:49:30;;;;;;;1.53;0.80;;;;;;;;;;5128423;28;20027;-66
2022/07/30 00:51:57;;;;;;;0.77;0.40;;;;;;;;;;5128456;28;20019;-66
2022/07/30 00:54:23;;;;;;;0.80;0.40;;;;;;;;;;5112516;28;20027;-67
2022/07/30 00:56:50;;;;;;;3.37;0.70;;;;;;;;;;5112938;28;20024;-67
2022/07/30 00:59:17;;;;;;;1.33;0.50;;;;;;;;;;5112555;28;20047;-66
2022/07/30 01:01:43;;;;;;;4.20;0.50;;;;;;;;;;5112673;28;20030;-66
2022/07/30 01:04:10;;;;;;;1.17;0.70;;;;;;;;;;5112680;28;20023;-67
2022/07/30 01:06:38;;;;;;;0.40;0.30;;;;;;;;;;5106941;28;20809;-68
2022/07/30 01:09:05;;;;;;;0.53;0.33;;;;;;;;;;5095635;28;20023;-66
2022/07/30 01:11:35;;;;;;;0.37;0.27;;;;;;;;;;5107534;28;20496;-67
2022/07/30 01:14:02;;;;;;;8.63;0.63;;;;;;;;;;5104051;28;20055;-67
2022/07/30 01:16:29;;;;;;;1.90;0.50;;;;;;;;;;5111462;28;20024;-67
2022/07/30 01:21:43;;;;;;;1.10;0.60;;;;;;;;;;5116870;28;20043;-67
2022/07/30 01:24:19;;;;;;;0.53;0.30;;;;;;;;;;5116571;28;20028;-67
2022/07/30 01:26:47;;;;;;;8.37;0.63;;;;;;;;;;5116479;28;20035;-66
2022/07/30 01:29:15;;;;;;;3.93;1.07;;;;;;;;;;5112029;28;20164;-67
2022/07/30 01:31:43;;;;;;;0.27;0.27;;;;;;;;;;5091265;28;20043;-67
2022/07/30 01:34:13;;;;;;;3.20;0.63;;;;;;;;;;5091211;28;20032;-66
2022/07/30 01:36:41;;;;;;;1.20;0.60;;;;;;;;;;5090981;28;20028;-67
2022/07/30 01:39:08;;;;;;;1.03;0.40;;;;;;;;;;5094740;28;20371;-67
2022/07/30 01:41:35;;;;;;;0.87;0.57;;;;;;;;;;5105743;28;20119;-67
2022/07/30 01:44:02;;;;;;;0.60;0.40;;;;;;;;;;5115714;28;20027;-66
2022/07/30 01:46:30;;;;;;;1.20;0.63;;;;;;;;;;5114550;28;20027;-66
2022/07/30 01:48:58;;;;;;;1.10;0.50;;;;;;;;;;5116456;28;20460;-64
2022/07/30 01:51:26;;;;;;;0.67;0.40;;;;;;;;;;5111425;28;20088;-64
2022/07/30 01:53:53;;;;;;;2.23;1.23;;;;;;;;;;5104978;28;20109;-64
2022/07/30 01:56:21;;;;;;;2.07;0.77;;;;;;;;;;5111240;28;20521;-64
2022/07/30 01:58:48;;;;;;;2.20;0.63;;;;;;;;;;5110598;28;20056;-64
2022/07/30 02:01:15;;;;;;;1.03;0.50;;;;;;;;;;5113824;28;20497;-64
2022/07/30 02:03:41;;;;;;;1.33;0.90;;;;;;;;;;5115782;28;20417;-64
2022/07/30 02:06:11;;;;;;;0.77;0.43;;;;;;;;;;5097228;28;20024;-63
2022/07/30 02:08:41;;;;;;;0.97;0.53;;;;;;;;;;5095483;28;20024;-68
2022/07/30 02:11:09;;;;;;;1.67;0.70;;;;;;;;;;5095459;28;20107;-61
2022/07/30 02:13:41;;;;;;;2.60;0.93;;;;;;;;;;5091521;28;20020;-64
2022/07/30 02:16:19;;;;;;;0.37;0.30;;;;;;;;;;5093515;28;20122;-63
2022/07/30 02:19:01;;;;;;;1.27;0.53;;;;;;;;;;5109131;28;20024;-64
2022/07/30 02:21:31;;;;;;;0.80;0.60;;;;;;;;;;5089835;28;20100;-64
2022/07/30 02:23:58;;;;;;;1.53;0.83;;;;;;;;;;5093719;28;20031;-64
2022/07/30 02:26:26;;;;;;;1.67;0.70;;;;;;;;;;5094833;28;20382;-64
2022/07/30 02:28:54;;;;;;;3.70;0.63;;;;;;;;;;5094297;28;20055;-64
2022/07/30 02:31:23;;;;;;;3.53;1.10;;;;;;;;;;5106946;28;20028;-64
2022/07/30 02:33:52;;;;;;;0.73;0.53;;;;;;;;;;5115153;28;20085;-65
2022/07/30 02:36:19;;;;;;;2.23;0.90;;;;;;;;;;5110064;28;20023;-64
2022/07/30 02:38:46;;;;;;;1.27;0.53;;;;;;;;;;5109701;28;20023;-64
2022/07/30 02:41:13;;;;;;;1.77;0.70;;;;;;;;;;5109800;28;20088;-65
2022/07/30 02:43:41;;;;;;;1.33;0.60;;;;;;;;;;5107772;28;20463;-64
2022/07/30 02:46:09;;;;;;;2.30;1.10;;;;;;;;;;5093313;28;20482;-65
2022/07/30 02:48:40;;;;;;;0.93;0.50;;;;;;;;;;5099929;28;20016;-63
2022/07/30 02:51:07;;;;;;;0.83;0.43;;;;;;;;;;5114637;28;20078;-63
2022/07/30 02:53:34;;;;;;;2.00;0.73;;;;;;;;;;5104759;28;20031;-63
2022/07/30 02:56:03;;;;;;;0.67;0.40;;;;;;;;;;5093986;28;20114;-65
2022/07/30 02:58:30;;;;;;;1.10;0.53;;;;;;;;;;5108938;28;20035;-65
2022/07/30 03:00:57;;;;;;;3.70;1.23;;;;;;;;;;5109510;28;20038;-64
2022/07/30 03:03:28;;;;;;;2.00;1.00;;;;;;;;;;5109365;28;20031;-64
2022/07/30 03:05:55;;;;;;;1.43;0.57;;;;;;;;;;5107023;28;20024;-65
2022/07/30 03:08:22;;;;;;;5.10;1.03;;;;;;;;;;5111472;28;20099;-64
2022/07/30 03:10:49;;;;;;;2.30;1.00;;;;;;;;;;5113722;28;20028;-64
2022/07/30 03:13:17;;;;;;;2.33;1.07;;;;;;;;;;5114419;28;20043;-64
2022/07/30 03:15:49;;;;;;;5.63;1.40;;;;;;;;;;5114374;28;20489;-64
2022/07/30 03:18:17;;;;;;;3.53;1.10;;;;;;;;;;5114244;28;20020;-64
2022/07/30 03:20:48;;;;;;;2.37;1.30;;;;;;;;;;5097128;28;20032;-64
2022/07/30 03:23:17;;;;;;;1.37;0.77;;;;;;;;;;5088645;28;20028;-64
2022/07/30 03:25:47;;;;;;;3.47;1.30;;;;;;;;;;5088198;28;20024;-65
2022/07/30 03:28:15;;;;;;;2.10;0.70;;;;;;;;;;5088343;28;20104;-64
2022/07/30 03:30:42;;;;;;;4.07;1.00;;;;;;;;;;5092358;28;20024;-64
2022/07/30 03:33:09;;;;;;;1.60;0.73;;;;;;;;;;5093734;28;20024;-64
2022/07/30 03:35:37;;;;;;;1.93;0.90;;;;;;;;;;5112603;28;20077;-64
2022/07/30 03:38:04;;;;;;;1.60;0.53;;;;;;;;;;5112001;28;20027;-64
2022/07/30 03:40:31;;;;;;;11.40;1.20;;;;;;;;;;5098618;28;20509;-64
2022/07/30 03:42:58;;;;;;;3.30;1.10;;;;;;;;;;5089223;28;20034;-64
2022/07/30 03:45:25;;;;;;;2.13;0.50;;;;;;;;;;5088247;28;20016;-64
2022/07/30 03:47:52;;;;;;;2.03;0.67;;;;;;;;;;5092195;28;20370;-64
2022/07/30 03:50:19;;;;;;;3.60;1.30;;;;;;;;;;5108285;28;20049;-64
2022/07/30 03:52:46;;;;;;;1.00;0.60;;;;;;;;;;5111915;28;20425;-64
2022/07/30 03:55:13;;;;;;;2.90;1.03;;;;;;;;;;5113472;28;20027;-64
2022/07/30 03:57:40;;;;;;;4.73;2.10;;;;;;;;;;5113149;28;20027;-64
2022/07/30 04:00:07;;;;;;;3.93;1.43;;;;;;;;;;5112916;28;20486;-65
2022/07/30 04:02:43;;;;;;;3.67;1.60;;;;;;;;;;5093090;28;20024;-64
2022/07/30 04:05:12;;;;;;;4.13;1.90;;;;;;;;;;5089051;28;20542;-64
2022/07/30 04:07:39;;;;;;;2.97;1.57;;;;;;;;;;5088006;28;20137;-64
2022/07/30 04:10:06;;;;;;;4.77;2.07;;;;;;;;;;5087694;28;20028;-65
2022/07/30 04:12:33;;;;;;;1.67;0.97;;;;;;;;;;5092800;28;20020;-65
2022/07/30 04:14:59;;;;;;;4.57;1.27;;;;;;;;;;5111433;28;20039;-64
2022/07/30 04:17:29;;;;;;;3.40;1.67;;;;;;;;;;5113256;28;20104;-64
2022/07/30 04:20:00;;;;;;;2.80;1.13;;;;;;;;;;5113075;28;20474;-64
2022/07/30 04:22:33;;;;;;;2.93;1.13;;;;;;;;;;5113176;28;20469;-64
2022/07/30 04:25:01;;;;;;;2.70;1.43;;;;;;;;;;5112648;28;20077;-64
2022/07/30 04:27:28;;;;;;;3.23;1.33;;;;;;;;;;5091662;28;20468;-64
2022/07/30 04:29:55;;;;;;;7.07;1.80;;;;;;;;;;5087500;28;20111;-64
2022/07/30 04:32:22;;;;;;;4.10;1.10;;;;;;;;;;5087538;28;20031;-64
2022/07/30 04:34:53;;;;;;;8.33;1.53;;;;;;;;;;5087503;28;20024;-64
2022/07/30 04:37:21;;;;;;;6.23;1.60;;;;;;;;;;5090669;28;20424;-63
2022/07/30 04:39:53;;;;;;;4.30;1.10;;;;;;;;;;5094420;28;20028;-64
2022/07/30 04:42:25;;;;;;;3.03;1.33;;;;;;;;;;5113037;28;20560;-64
2022/07/30 04:44:52;;;;;;;3.53;1.40;;;;;;;;;;5112877;28;20090;-64
2022/07/30 04:47:19;;;;;;;4.73;1.60;;;;;;;;;;5112969;28;20020;-64
2022/07/30 04:49:47;;;;;;;9.73;2.17;;;;;;;;;;5106604;28;20028;-64
2022/07/30 04:52:14;;;;;;;6.80;1.80;;;;;;;;;;5107399;28;20027;-64
2022/07/30 04:54:46;;;;;;;3.53;1.30;;;;;;;;;;5107159;28;20028;-63
2022/07/30 04:57:13;;;;;;;4.73;1.90;;;;;;;;;;5107347;28;20490;-64
2022/07/30 04:59:40;;;;;;;7.33;2.40;;;;;;;;;;5110900;28;20039;-64
2022/07/30 05:02:09;;;;;;;4.00;1.70;;;;;;;;;;5102376;28;20371;-64
2022/07/30 05:04:36;;;;;;;3.23;1.90;;;;;;;;;;5092181;28;20035;-64
2022/07/30 05:07:03;;;;;;;12.10;2.10;;;;;;;;;;5092317;28;20039;-63
2022/07/30 05:09:30;;;;;;;8.40;2.27;;;;;;;;;;5091855;28;20928;-63
2022/07/30 05:11:58;;;;;;;5.27;1.77;;;;;;;;;;5088058;28;20032;-64
2022/07/30 05:14:25;;;;;;;6.43;1.83;;;;;;;;;;5087022;28;20056;-64
2022/07/30 05:16:52;;;;;;;2.73;1.10;;;;;;;;;;5102233;28;20058;-64
2022/07/30 05:19:19;;;;;;;4.00;2.17;;;;;;;;;;5107281;28;20020;-64
2022/07/30 05:21:46;;;;;;;5.20;1.90;;;;;;;;;;5110441;28;20047;-63
2022/07/30 05:24:13;;;;;;;13.80;2.20;;;;;;;;;;5112144;28;20045;-64
2022/07/30 05:26:40;;;;;;;21.47;2.13;;;;;;;;;;5112497;28;20047;-63
2022/07/30 05:29:07;;;;;;;4.93;1.67;;;;;;;;;;5107911;28;20042;-64
2022/07/30 05:31:34;;;;;;;4.87;1.90;;;;;;;;;;5092051;28;20031;-64
2022/07/30 05:34:00;;;;;;;2.93;1.47;;;;;;;;;;5088550;28;20028;-64
2022/07/30 05:36:27;;;;;;;4.80;1.70;;;;;;;;;;5086949;28;20043;-64
2022/07/30 05:38:54;;;;;;;5.73;1.17;;;;;;;;;;5086725;28;20043;-64
2022/07/30 05:41:20;;;;;;;12.10;2.00;;;;;;;;;;5086180;28;20056;-65
2022/07/30 05:43:47;;;;;;;2.47;1.20;;;;;;;;;;5100323;28;20375;-64
2022/07/30 05:46:13;;;;;;;2.83;1.33;;;;;;;;;;5112081;28;20561;-64
2022/07/30 05:48:40;;;;;;;2.90;1.40;;;;;;;;;;5112272;28;20062;-64
2022/07/30 05:51:07;;;;;;;1.67;1.03;;;;;;;;;;5112026;28;20027;-64
2022/07/30 05:53:33;;;;;;;1.57;1.00;;;;;;;;;;5112146;28;20019;-64
2022/07/30 05:56:00;;;;;;;4.27;0.93;;;;;;;;;;5109232;28;20099;-64
2022/07/30 05:58:27;;;;;;;2.77;1.60;;;;;;;;;;5089988;28;20028;-64
2022/07/30 06:00:53;;;;;;;5.23;1.43;;;;;;;;;;5105802;28;20040;-64
2022/07/30 06:03:20;;;;;;;3.63;1.87;;;;;;;;;;5107388;28;20024;-64
2022/07/30 06:05:47;;;;;;;3.90;1.50;;;;;;;;;;5112666;28;20600;-64
2022/07/30 06:08:13;;;;;;;2.30;1.07;;;;;;;;;;5115721;28;20472;-64
2022/07/30 06:10:40;;;;;;;1.63;0.90;;;;;;;;;;5112384;28;20043;-64
2022/07/30 06:13:07;;;;;;;5.83;1.50;;;;;;;;;;5095113;28;20059;-64
2022/07/30 06:15:33;;;;;;;4.87;2.00;;;;;;;;;;5094781;28;20020;-64
2022/07/30 06:18:00;;;;;;;5.00;1.43;;;;;;;;;;5092849;28;20036;-64
2022/07/30 06:20:26;;;;;;;2.80;1.53;;;;;;;;;;5089615;28;20137;-63
2022/07/30 06:22:53;;;;;;;6.50;2.47;;;;;;;;;;5090038;28;20031;-64
2022/07/30 06:25:20;;;;;;;4.87;1.70;;;;;;;;;;5099374;28;20126;-64
2022/07/30 06:27:46;;;;;;;5.20;1.60;;;;;;;;;;5111697;28;20023;-64
2022/07/30 06:30:13;;;;;;;9.93;1.93;;;;;;;;;;5115093;28;20030;-64
2022/07/30 06:32:42;;;;;;;5.27;1.87;;;;;;;;;;5115023;28;20019;-64
2022/07/30 06:35:09;;;;;;;1.90;1.13;;;;;;;;;;5115159;28;20032;-64
2022/07/30 06:37:35;;;;;;;9.20;2.10;;;;;;;;;;5114963;28;20070;-64
2022/07/30 06:40:02;;;;;;;1.20;0.93;;;;;;;;;;5094606;28;20040;-64
2022/07/30 06:42:29;;;;;;;3.40;1.70;;;;;;;;;;5089496;28;20047;-64
2022/07/30 06:44:55;;;;;;;4.27;1.07;;;;;;;;;;5089445;28;20032;-65
2022/07/30 06:47:27;;;;;;;3.53;1.40;;;;;;;;;;5089017;28;20100;-64
2022/07/30 06:49:53;;;;;;;1.07;0.67;;;;;;;;;;5090522;28;20027;-64
2022/07/30 06:52:20;;;;;;;3.07;1.17;;;;;;;;;;5098203;28;20024;-63
2022/07/30 06:54:47;;;;;;;3.00;1.40;;;;;;;;;;5114667;28;20525;-63
2022/07/30 06:57:14;;;;;;;2.60;1.30;;;;;;;;;;5114638;28;20466;-64
2022/07/30 06:59:41;;;;;;;7.67;1.57;;;;;;;;;;5114699;28;20039;-63
2022/07/30 07:02:08;;;;;;;4.17;1.30;;;;;;;;;;5113075;28;20094;-64
2022/07/30 07:04:34;;;;;;;4.57;1.60;;;;;;;;;;5109326;28;20543;-63
2022/07/30 07:07:01;;;;;;;3.60;1.27;;;;;;;;;;5098273;28;20712;-63
2022/07/30 07:09:28;;;;;;;7.33;2.07;;;;;;;;;;5088984;28;20020;-65
2022/07/30 07:11:54;;;;;;;5.10;2.40;;;;;;;;;;5089175;28;20032;-64
2022/07/30 07:14:21;;;;;;;5.63;1.70;;;;;;;;;;5093868;28;20506;-63
2022/07/30 07:16:48;;;;;;;4.63;2.00;;;;;;;;;;5093948;28;20016;-64
2022/07/30 07:19:15;;;;;;;4.13;2.13;;;;;;;;;;5093450;28;20375;-63
2022/07/30 07:21:42;;;;;;;2.63;1.10;;;;;;;;;;5093964;28;20028;-63
2022/07/30 07:24:08;;;;;;;3.37;1.37;;;;;;;;;;5107281;28;20112;-64
2022/07/30 07:26:35;;;;;;;2.80;1.17;;;;;;;;;;5108860;28;20478;-64
2022/07/30 07:29:02;;;;;;;2.43;1.20;;;;;;;;;;5108664;28;20072;-64
2022/07/30 07:31:29;;;;;;;2.40;1.17;;;;;;;;;;5102570;28;20016;-64
2022/07/30 07:33:55;;;;;;;1.87;1.30;;;;;;;;;;5088617;28;20020;-64
2022/07/30 07:36:22;;;;;;;4.30;2.10;;;;;;;;;;5093115;28;20032;-64
2022/07/30 07:38:49;;;;;;;8.23;2.73;;;;;;;;;;5093625;28;20024;-64
2022/07/30 07:41:16;;;;;;;17.10;2.90;;;;;;;;;;5093598;28;20059;-63
2022/07/30 07:43:43;;;;;;;14.20;2.87;;;;;;;;;;5102608;28;20486;-63
2022/07/30 07:46:11;;;;;;;5.77;2.53;;;;;;;;;;5113343;28;20046;-63
2022/07/30 07:48:38;;;;;;;5.50;2.30;;;;;;;;;;5108455;28;20031;-64
2022/07/30 07:51:05;;;;;;;4.97;2.83;;;;;;;;;;5108507;28;20338;-63
2022/07/30 07:53:31;;;;;;;12.00;3.40;;;;;;;;;;5108093;28;20027;-63
2022/07/30 07:55:58;;;;;;;6.00;2.80;;;;;;;;;;5108346;28;20020;-64
2022/07/30 07:58:26;;;;;;;5.40;2.70;;;;;;;;;;5095914;28;20114;-63
2022/07/30 08:00:53;;;;;;;5.43;2.83;;;;;;;;;;5093025;28;20081;-63
2022/07/30 08:03:20;;;;;;;7.27;3.27;;;;;;;;;;5092938;28;20384;-63
2022/07/30 08:05:47;;;;;;;5.07;2.77;;;;;;;;;;5092859;28;20062;-63
2022/07/30 08:08:13;;;;;;;15.93;2.47;;;;;;;;;;5092997;28;20016;-64
2022/07/30 08:10:40;;;;;;;1.83;1.40;;;;;;;;;;5088687;28;20019;-63
2022/07/30 08:13:07;;;;;;;4.03;1.80;;;;;;;;;;5095841;28;20043;-63
2022/07/30 08:15:34;;;;;;;3.50;1.57;;;;;;;;;;5108285;28;20019;-63
2022/07/30 08:18:00;;;;;;;17.70;2.63;;;;;;;;;;5107925;28;20020;-63
2022/07/30 08:20:27;;;;;;;2.03;1.40;;;;;;;;;;5112345;28;20038;-64
2022/07/30 08:22:54;;;;;;;7.57;3.10;;;;;;;;;;5113201;28;20108;-63
2022/07/30 08:25:22;;;;;;;4.87;1.93;;;;;;;;;;5111047;28;20484;-63
2022/07/30 08:27:48;;;;;;;3.70;2.10;;;;;;;;;;5112702;28;20035;-63
2022/07/30 08:30:15;;;;;;;11.90;3.00;;;;;;;;;;5113237;28;20464;-63
2022/07/30 08:32:42;;;;;;;3.43;1.60;;;;;;;;;;5102122;28;20020;-63
2022/07/30 08:35:08;;;;;;;3.20;1.70;;;;;;;;;;5087450;28;20031;-63
2022/07/30 08:37:35;;;;;;;1.77;1.00;;;;;;;;;;5087183;28;20031;-63
2022/07/30 08:40:03;;;;;;;9.30;1.40;;;;;;;;;;5104910;28;20032;-63
2022/07/30 08:42:31;;;;;;;7.90;2.07;;;;;;;;;;5111358;28;20077;-63
2022/07/30 08:44:57;;;;;;;15.47;2.00;;;;;;;;;;5110959;28;20474;-63
2022/07/30 08:47:27;;;;;;;2.93;1.73;;;;;;;;;;5112764;28;20053;-63
2022/07/30 08:49:56;;;;;;;1.37;0.70;;;;;;;;;;5113097;28;20373;-63
2022/07/30 08:52:23;;;;;;;4.43;2.07;;;;;;;;;;5112802;28;20027;-63
2022/07/30 08:54:50;;;;;;;8.90;1.07;;;;;;;;;;5099337;28;20036;-63
2022/07/30 08:57:17;;;;;;;4.23;1.70;;;;;;;;;;5086681;28;20021;-64
2022/07/30 08:59:44;;;;;;;1.33;0.97;;;;;;;;;;5087126;28;20028;-63
2022/07/30 09:02:10;;;;;;;2.13;1.20;;;;;;;;;;5087178;28;20023;-63
2022/07/30 09:04:37;;;;;;;14.37;3.37;;;;;;;;;;5091048;28;20020;-63
2022/07/30 09:07:04;;;;;;;3.43;2.03;;;;;;;;;;5092343;28;20027;-63
2022/07/30 09:09:30;;;;;;;10.43;3.00;;;;;;;;;;5098096;28;20059;-64
2022/07/30 09:11:57;;;;;;;6.53;1.77;;;;;;;;;;5112439;28;20040;-63
2022/07/30 09:14:24;;;;;;;2.27;1.33;;;;;;;;;;5112105;28;20051;-63
2022/07/30 09:16:57;;;;;;;1.67;0.93;;;;;;;;;;5108367;28;20084;-64
2022/07/30 09:19:23;;;;;;;5.83;2.07;;;;;;;;;;5107265;28;20028;-63
2022/07/30 09:21:57;;;;;;;3.47;1.43;;;;;;;;;;5107237;28;20019;-63
2022/07/30 09:24:24;;;;;;;2.80;1.27;;;;;;;;;;5107315;28;20088;-63
2022/07/30 09:26:55;;;;;;;1.33;1.03;;;;;;;;;;5094332;28;20056;-63
2022/07/30 09:29:22;;;;;;;3.37;1.80;;;;;;;;;;5092078;28;20103;-63
2022/07/30 09:31:55;;;;;;;6.03;2.30;;;;;;;;;;5092184;28;20031;-63
2022/07/30 09:34:25;;;;;;;2.97;1.63;;;;;;;;;;5092124;28;20103;-63
2022/07/30 09:36:52;;;;;;;2.33;1.10;;;;;;;;;;5092109;28;20035;-63
2022/07/30 09:39:38;;;;;;;1.03;0.83;;;;;;;;;;5089527;28;20489;-64
2022/07/30 09:42:19;;;;;;;3.47;1.53;;;;;;;;;;5101891;28;20039;-64
2022/07/30 09:44:46;;;;;;;4.13;1.63;;;;;;;;;;5108892;28;20058;-64
2022/07/30 09:47:32;;;;;;;3.87;1.70;;;;;;;;;;5109014;28;20035;-63
2022/07/30 09:50:03;;;;;;;1.87;1.23;;;;;;;;;;5114219;28;20415;-63
2022/07/30 09:52:30;;;;;;;0.83;0.57;;;;;;;;;;5116144;28;20099;-63
2022/07/30 09:54:56;;;;;;;1.93;1.43;;;;;;;;;;5115992;28;20028;-63
2022/07/30 09:57:23;;;;;;;4.10;1.27;;;;;;;;;;5116133;28;20019;-63
2022/07/30 09:59:50;;;;;;;1.23;1.00;;;;;;;;;;5114686;28;20370;-63
2022/07/30 10:02:16;;;;;;;5.03;1.47;;;;;;;;;;5107243;28;20035;-63
2022/07/30 10:04:43;;;;;;;2.83;1.57;;;;;;;;;;5090164;28;20885;-63
2022/07/30 10:07:20;;;;;;;3.33;1.53;;;;;;;;;;5090188;28;20017;-63
2022/07/30 10:09:48;;;;;;;8.00;0.97;;;;;;;;;;5090615;28;20020;-63
2022/07/30 10:12:15;;;;;;;9.03;2.07;;;;;;;;;;5095223;28;20059;-63
2022/07/30 10:14:43;;;;;;;6.73;1.17;;;;;;;;;;5094662;28;20020;-63
2022/07/30 10:17:10;;;;;;;1.87;1.03;;;;;;;;;;5095166;28;20081;-63
2022/07/30 10:19:37;;;;;;;4.00;1.07;;;;;;;;;;5106014;28;20034;-63
2022/07/30 10:22:04;;;;;;;2.03;1.47;;;;;;;;;;5114477;28;20015;-63
2022/07/30 10:24:31;;;;;;;2.73;1.40;;;;;;;;;;5110324;28;20034;-63
2022/07/30 10:26:58;;;;;;;1.43;0.80;;;;;;;;;;5110210;28;20041;-63
2022/07/30 10:29:24;;;;;;;2.63;1.60;;;;;;;;;;5109988;28;20027;-63
2022/07/30 10:31:51;;;;;;;0.83;0.70;;;;;;;;;;5109981;28;20054;-63
2022/07/30 10:34:19;;;;;;;3.23;1.67;;;;;;;;;;5115041;28;20474;-63
2022/07/30 10:36:47;;;;;;;7.33;1.93;;;;;;;;;;5094735;28;20017;-63
2022/07/30 10:39:15;;;;;;;3.10;2.20;;;;;;;;;;5094715;28;20475;-63
2022/07/30 10:41:47;;;;;;;6.03;2.40;;;;;;;;;;5094540;28;20054;-63
2022/07/30 10:44:30;;;;;;;3.20;1.50;;;;;;;;;;5093757;28;20355;-63
2022/07/30 10:46:56;;;;;;;5.33;1.90;;;;;;;;;;5089364;28;20049;-63
2022/07/30 10:49:24;;;;;;;2.57;1.30;;;;;;;;;;5088895;28;20024;-63
2022/07/30 10:51:53;;;;;;;3.03;1.27;;;;;;;;;;5100270;28;20042;-63
2022/07/30 10:54:32;;;;;;;1.77;1.17;;;;;;;;;;5110340;28;20019;-63
2022/07/30 10:57:14;;;;;;;8.10;2.17;;;;;;;;;;5114870;28;20081;-63
2022/07/30 10:59:49;;;;;;;4.60;1.80;;;;;;;;;;5114788;28;20027;-63
2022/07/30 11:02:17;;;;;;;3.93;1.33;;;;;;;;;;5114693;28;20035;-63
2022/07/30 11:04:44;;;;;;;2.90;1.73;;;;;;;;;;5114416;28;20027;-63
2022/07/30 11:07:23;;;;;;;3.20;1.60;;;;;;;;;;5110017;28;20026;-63
2022/07/30 11:09:54;;;;;;;6.10;1.97;;;;;;;;;;5109392;28;20030;-63
2022/07/30 11:12:39;;;;;;;3.93;1.60;;;;;;;;;;5109233;28;20049;-63
2022/07/30 11:15:06;;;;;;;9.00;2.05;;;;;;;;;;5108884;28;20022;-63
2022/07/30 11:17:51;;;;;;;6.53;1.97;;;;;;;;;;5112086;28;20016;-63
2022/07/30 11:20:19;;;;;;;1.90;1.23;;;;;;;;;;5114260;28;20030;-63
2022/07/30 11:22:48;;;;;;;3.87;1.43;;;;;;;;;;5111282;28;20027;-63
2022/07/30 11:25:27;;;;;;;2.73;1.83;;;;;;;;;;5093474;28;20073;-63
2022/07/30 11:27:53;;;;;;;1.43;1.07;;;;;;;;;;5093648;28;20047;-63
2022/07/30 11:30:20;;;;;;;10.90;2.17;;;;;;;;;;5089052;28;20081;-62
2022/07/30 11:32:47;;;;;;;6.83;1.50;;;;;;;;;;5088462;28;20016;-62
2022/07/30 11:35:15;;;;;;;1.77;0.97;;;;;;;;;;5088481;28;20508;-63
2022/07/30 11:37:54;;;;;;;3.80;1.63;;;;;;;;;;5088081;28;20421;-63
2022/07/30 11:40:22;;;;;;;3.40;2.03;;;;;;;;;;5108852;28;20082;-63
2022/07/30 11:42:49;;;;;;;2.17;1.20;;;;;;;;;;5113859;28;20054;-62
2022/07/30 11:45:15;;;;;;;2.03;1.17;;;;;;;;;;5113816;28;20474;-63
2022/07/30 11:47:52;;;;;;;22.03;1.60;;;;;;;;;;5113809;28;20354;-63
2022/07/30 11:50:23;;;;;;;2.50;1.47;;;;;;;;;;5109572;28;20024;-63
2022/07/30 11:52:53;;;;;;;5.87;1.67;;;;;;;;;;5088278;28;20030;-63
2022/07/30 11:55:31;;;;;;;4.10;2.17;;;;;;;;;;5087971;28;20055;-63
2022/07/30 11:57:58;;;;;;;2.53;1.43;;;;;;;;;;5088137;28;20056;-63
2022/07/30 12:00:26;;;;;;;3.33;1.27;;;;;;;;;;5087611;28;20028;-63
2022/07/30 12:02:53;;;;;;;3.37;1.57;;;;;;;;;;5092108;28;20103;-62
2022/07/30 12:05:28;;;;;;;4.63;1.37;;;;;;;;;;5104769;28;20096;-62
2022/07/30 12:07:58;;;;;;;1.63;1.17;;;;;;;;;;5113463;28;20026;-63
2022/07/30 12:10:24;;;;;;;1.13;0.90;;;;;;;;;;5113395;28;20016;-62
2022/07/30 12:12:51;;;;;;;38.33;2.83;;;;;;;;;;5112562;28;20102;-62
2022/07/30 12:15:31;;;;;;;5.67;1.90;;;;;;;;;;5107634;28;20110;-62
2022/07/30 12:17:59;;;;;;;2.70;1.63;;;;;;;;;;5107796;28;20024;-63
2022/07/30 12:20:27;;;;;;;1.67;1.00;;;;;;;;;;5103187;28;20296;-63
2022/07/30 12:22:53;;;;;;;2.93;1.37;;;;;;;;;;5087885;28;20085;-63
2022/07/30 12:25:20;;;;;;;4.20;2.37;;;;;;;;;;5092907;28;20027;-63
2022/07/30 12:27:48;;;;;;;2.30;1.43;;;;;;;;;;5092289;28;20020;-63
2022/07/30 12:30:15;;;;;;;1.63;1.07;;;;;;;;;;5093998;28;20024;-63
2022/07/30 12:32:45;;;;;;;6.30;1.37;;;;;;;;;;5092892;28;20097;-64
2022/07/30 12:35:12;;;;;;;2.30;1.33;;;;;;;;;;5091653;28;20048;-63
2022/07/30 12:37:39;;;;;;;3.77;1.67;;;;;;;;;;5087574;28;20470;-62
2022/07/30 12:40:10;;;;;;;7.90;2.30;;;;;;;;;;5087225;28;20315;-63
2022/07/30 12:42:37;;;;;;;2.47;1.30;;;;;;;;;;5086795;28;20281;-63
2022/07/30 12:45:05;;;;;;;2.33;1.23;;;;;;;;;;5094538;28;20252;-63
2022/07/30 12:47:34;;;;;;;4.13;2.00;;;;;;;;;;5112871;28;20026;-63
2022/07/30 12:50:04;;;;;;;5.00;1.07;;;;;;;;;;5112757;28;20431;-64
2022/07/30 12:52:31;;;;;;;3.60;1.57;;;;;;;;;;5110991;28;20374;-63
2022/07/30 12:54:59;;;;;;;4.50;2.00;;;;;;;;;;5112680;28;20115;-63
2022/07/30 12:57:26;;;;;;;2.17;1.27;;;;;;;;;;5111454;28;20020;-63
2022/07/30 13:00:07;;;;;;;2.77;1.50;;;;;;;;;;5107342;28;20072;-63
2022/07/30 13:02:35;;;;;;;5.40;1.57;;;;;;;;;;5107497;28;20807;-63
2022/07/30 13:05:02;;;;;;;2.97;1.67;;;;;;;;;;5105640;28;20079;-63
2022/07/30 13:07:30;;;;;;;4.67;2.10;;;;;;;;;;5106385;28;20482;-63
2022/07/30 13:10:07;;;;;;;2.10;1.30;;;;;;;;;;5111932;28;20331;-62
2022/07/30 13:12:34;;;;;;;4.73;1.40;;;;;;;;;;5113592;28;20091;-63
2022/07/30 13:15:01;;;;;;;3.87;1.77;;;;;;;;;;5116795;28;20073;-63
2022/07/30 13:17:27;;;;;;;3.43;1.33;;;;;;;;;;5116732;28;20039;-63
2022/07/30 13:19:54;;;;;;;5.63;1.07;;;;;;;;;;5113417;28;20023;-63
2022/07/30 13:22:21;;;;;;;3.10;2.03;;;;;;;;;;5090792;28;20065;-63
2022/07/30 13:24:47;;;;;;;2.93;1.70;;;;;;;;;;5090831;28;20028;-63
2022/07/30 13:27:15;;;;;;;3.37;1.70;;;;;;;;;;5090735;28;20727;-63
2022/07/30 13:29:42;;;;;;;3.67;1.70;;;;;;;;;;5091687;28;20379;-63
2022/07/30 13:32:09;;;;;;;3.77;1.77;;;;;;;;;;5096060;28;20027;-63
2022/07/30 13:34:35;;;;;;;2.77;1.50;;;;;;;;;;5095866;28;20059;-63
2022/07/30 13:37:02;;;;;;;8.63;1.73;;;;;;;;;;5104460;28;20024;-63
2022/07/30 13:39:29;;;;;;;18.87;2.63;;;;;;;;;;5114023;28;20102;-63
2022/07/30 13:41:55;;;;;;;16.73;1.77;;;;;;;;;;5115043;28;20028;-63
2022/07/30 13:44:22;;;;;;;8.27;2.67;;;;;;;;;;5110823;28;20098;-63
2022/07/30 13:46:49;;;;;;;8.77;2.30;;;;;;;;;;5111004;28;20077;-63
2022/07/30 13:49:15;;;;;;;13.47;2.67;;;;;;;;;;5110729;28;20027;-63
2022/07/30 13:51:42;;;;;;;6.07;2.00;;;;;;;;;;5111348;28;20106;-63
2022/07/30 13:54:09;;;;;;;6.27;2.10;;;;;;;;;;5097786;28;20024;-63
2022/07/30 13:56:36;;;;;;;4.70;2.00;;;;;;;;;;5095600;28;20020;-63
2022/07/30 13:59:03;;;;;;;5.63;1.80;;;;;;;;;;5095566;28;20534;-64
2022/07/30 14:01:30;;;;;;;4.47;1.80;;;;;;;;;;5095349;28;20116;-63
2022/07/30 14:03:56;;;;;;;6.57;1.60;;;;;;;;;;5094914;28;20016;-64
2022/07/30 14:06:23;;;;;;;2.47;1.47;;;;;;;;;;5090073;28;20024;-63
2022/07/30 14:08:50;;;;;;;6.13;2.00;;;;;;;;;;5094173;28;20019;-64
2022/07/30 14:11:17;;;;;;;2.40;1.30;;;;;;;;;;5108339;28;20047;-64
2022/07/30 14:13:44;;;;;;;4.50;1.60;;;;;;;;;;5110106;28;20424;-64
2022/07/30 14:16:12;;;;;;;16.57;2.57;;;;;;;;;;5115669;28;20027;-64
2022/07/30 14:18:39;;;;;;;19.27;2.23;;;;;;;;;;5113475;28;20500;-64
2022/07/30 14:21:06;;;;;;;8.00;2.43;;;;;;;;;;5113452;28;20482;-64
2022/07/30 14:23:33;;;;;;;3.37;2.17;;;;;;;;;;5115093;28;20027;-63
2022/07/30 14:26:00;;;;;;;13.47;2.93;;;;;;;;;;5114411;28;20024;-64
2022/07/30 14:28:27;;;;;;;2.77;1.70;;;;;;;;;;5108147;28;20537;-64
2022/07/30 14:30:53;;;;;;;5.47;2.20;;;;;;;;;;5110101;28;20020;-63
2022/07/30 14:33:20;;;;;;;4.17;1.80;;;;;;;;;;5109941;28;20016;-64
2022/07/30 14:35:47;;;;;;;10.13;2.67;;;;;;;;;;5109639;28;20559;-64
2022/07/30 14:38:13;;;;;;;7.20;2.77;;;;;;;;;;5113158;28;20042;-63
2022/07/30 14:40:40;;;;;;;7.77;2.33;;;;;;;;;;5115255;28;20031;-63
2022/07/30 14:43:07;;;;;;;8.27;2.67;;;;;;;;;;5113057;28;20112;-63
2022/07/30 14:45:35;;;;;;;4.80;1.47;;;;;;;;;;5114898;28;20459;-63
2022/07/30 14:48:02;;;;;;;6.57;2.03;;;;;;;;;;5114923;28;20114;-63
2022/07/30 14:50:28;;;;;;;5.10;1.80;;;;;;;;;;5109511;28;20023;-64